Isla Mujeres, ROO, Mexico
Current Conditions -  °F | °C
As of 6:44 PM on Thursday 18 Dec 2014 (Local Time) from MMUN Reporting Station
Scattered Clouds Scattered Clouds  
Wind Chill: 75°   Ceiling: Unl
Heat Index: 75°   Visibility: 7mi
Dew Point: 66°   Wind: 6mph
Humidity: 73%   Direction: 60°ENE
Pressure: 30.03"   Gusts: NA
Location:  21.2°N, 86.72°W
Report Text: MMUN 190044Z 06005KT 7SM SCT020 24/19 A3003 RMK 8/500 ISOL TCU
Loading
Personal Weather Stations






























Interactive Weather Map New forecast layout! Learn more

10-Day Weather Forecast

Advertisements
Track Severe Weather on mobile